sensor_id;sensor_type;location;lat;lon;timestamp;pressure;altitude;pressure_sealevel;temperature;humidity
40872;BME280;26591;43.264;26.940;2023-06-04T00:02:19;99188.28;;;18.35;73.34
40872;BME280;26591;43.264;26.940;2023-06-04T00:04:44;99186.72;;;18.14;71.39
40872;BME280;26591;43.264;26.940;2023-06-04T00:07:10;99193.16;;;17.99;72.85
40872;BME280;26591;43.264;26.940;2023-06-04T00:09:35;99198.13;;;17.76;72.87
40872;BME280;26591;43.264;26.940;2023-06-04T00:12:01;99186.63;;;17.62;71.73
40872;BME280;26591;43.264;26.940;2023-06-04T00:14:27;99198.78;;;17.37;73.08
40872;BME280;26591;43.264;26.940;2023-06-04T00:16:52;99202.81;;;18.07;72.89
40872;BME280;26591;43.264;26.940;2023-06-04T00:19:18;99205.28;;;17.95;70.90
40872;BME280;26591;43.264;26.940;2023-06-04T00:21:45;99204.22;;;18.17;71.19
40872;BME280;26591;43.264;26.940;2023-06-04T00:24:10;99208.38;;;17.99;70.97
40872;BME280;26591;43.264;26.940;2023-06-04T00:26:37;99209.38;;;18.11;71.12
40872;BME280;26591;43.264;26.940;2023-06-04T00:29:03;99216.22;;;17.94;70.24
40872;BME280;26591;43.264;26.940;2023-06-04T00:31:29;99219.31;;;17.84;70.40
40872;BME280;26591;43.264;26.940;2023-06-04T00:33:54;99211.50;;;17.76;70.32
40872;BME280;26591;43.264;26.940;2023-06-04T00:36:20;99215.19;;;17.81;70.53
40872;BME280;26591;43.264;26.940;2023-06-04T00:38:46;99221.34;;;18.02;69.96
40872;BME280;26591;43.264;26.940;2023-06-04T00:41:11;99215.47;;;18.39;69.31
40872;BME280;26591;43.264;26.940;2023-06-04T00:43:37;99220.44;;;18.35;68.81
40872;BME280;26591;43.264;26.940;2023-06-04T00:46:02;99217.94;;;18.34;69.18
40872;BME280;26591;43.264;26.940;2023-06-04T00:48:28;99220.75;;;18.00;68.31
40872;BME280;26591;43.264;26.940;2023-06-04T00:50:56;99218.28;;;18.05;69.45
40872;BME280;26591;43.264;26.940;2023-06-04T00:53:23;99218.28;;;17.92;69.50
40872;BME280;26591;43.264;26.940;2023-06-04T00:55:50;99219.72;;;18.01;69.24
40872;BME280;26591;43.264;26.940;2023-06-04T00:58:15;99219.34;;;17.77;69.50
40872;BME280;26591;43.264;26.940;2023-06-04T01:00:47;99220.97;;;17.65;70.38
40872;BME280;26591;43.264;26.940;2023-06-04T01:03:18;99219.78;;;17.47;69.98
40872;BME280;26591;43.264;26.940;2023-06-04T01:08:15;99224.28;;;17.20;71.14
40872;BME280;26591;43.264;26.940;2023-06-04T01:10:56;99225.13;;;17.34;71.18
40872;BME280;26591;43.264;26.940;2023-06-04T01:13:22;99225.53;;;17.44;69.98
40872;BME280;26591;43.264;26.940;2023-06-04T01:15:48;99228.56;;;16.94;70.84
40872;BME280;26591;43.264;26.940;2023-06-04T01:18:18;99229.44;;;17.28;71.42
40872;BME280;26591;43.264;26.940;2023-06-04T01:23:43;99237.03;;;16.98;70.80
40872;BME280;26591;43.264;26.940;2023-06-04T01:26:11;99243.00;;;17.00;72.24
40872;BME280;26591;43.264;26.940;2023-06-04T01:28:37;99242.19;;;17.13;71.57
40872;BME280;26591;43.264;26.940;2023-06-04T01:31:07;99247.72;;;17.11;71.57
40872;BME280;26591;43.264;26.940;2023-06-04T01:33:34;99243.94;;;16.78;72.77
40872;BME280;26591;43.264;26.940;2023-06-04T01:36:02;99241.75;;;16.96;73.78
40872;BME280;26591;43.264;26.940;2023-06-04T01:38:27;99248.25;;;16.73;75.55
40872;BME280;26591;43.264;26.940;2023-06-04T01:40:54;99246.81;;;16.84;75.43
40872;BME280;26591;43.264;26.940;2023-06-04T01:43:22;99240.75;;;17.10;76.97
40872;BME280;26591;43.264;26.940;2023-06-04T01:45:47;99250.72;;;16.81;76.49
40872;BME280;26591;43.264;26.940;2023-06-04T01:48:13;99253.28;;;16.47;77.29
40872;BME280;26591;43.264;26.940;2023-06-04T01:50:39;99254.00;;;16.70;77.52
40872;BME280;26591;43.264;26.940;2023-06-04T01:53:04;99254.94;;;17.04;76.68
40872;BME280;26591;43.264;26.940;2023-06-04T01:55:30;99247.50;;;16.99;76.70
40872;BME280;26591;43.264;26.940;2023-06-04T01:57:58;99253.13;;;16.62;76.50
40872;BME280;26591;43.264;26.940;2023-06-04T02:00:24;99247.41;;;16.66;77.16
40872;BME280;26591;43.264;26.940;2023-06-04T02:02:50;99248.66;;;16.70;76.91
40872;BME280;26591;43.264;26.940;2023-06-04T02:05:17;99246.75;;;16.63;77.13
40872;BME280;26591;43.264;26.940;2023-06-04T02:07:44;99247.50;;;16.37;76.36
40872;BME280;26591;43.264;26.940;2023-06-04T02:10:17;99248.84;;;16.61;77.41
40872;BME280;26591;43.264;26.940;2023-06-04T02:13:12;99256.31;;;16.93;75.88
40872;BME280;26591;43.264;26.940;2023-06-04T02:15:38;99250.63;;;17.10;75.62
40872;BME280;26591;43.264;26.940;2023-06-04T02:18:16;99256.78;;;17.10;75.26
40872;BME280;26591;43.264;26.940;2023-06-04T02:20:45;99258.25;;;17.26;74.80
40872;BME280;26591;43.264;26.940;2023-06-04T02:23:11;99260.72;;;16.59;74.51
40872;BME280;26591;43.264;26.940;2023-06-04T02:25:37;99263.50;;;16.92;75.02
40872;BME280;26591;43.264;26.940;2023-06-04T02:28:03;99263.59;;;17.26;75.12
40872;BME280;26591;43.264;26.940;2023-06-04T02:30:28;99264.63;;;17.18;73.41
40872;BME280;26591;43.264;26.940;2023-06-04T02:32:54;99268.34;;;17.24;73.34
40872;BME280;26591;43.264;26.940;2023-06-04T02:35:20;99272.44;;;17.40;73.24
40872;BME280;26591;43.264;26.940;2023-06-04T02:37:48;99273.06;;;17.22;72.39
40872;BME280;26591;43.264;26.940;2023-06-04T02:40:14;99279.66;;;17.60;72.81
40872;BME280;26591;43.264;26.940;2023-06-04T02:42:39;99285.22;;;17.92;71.08
40872;BME280;26591;43.264;26.940;2023-06-04T02:45:05;99289.31;;;17.88;69.66
40872;BME280;26591;43.264;26.940;2023-06-04T02:47:31;99286.63;;;17.94;69.90
40872;BME280;26591;43.264;26.940;2023-06-04T02:49:57;99280.69;;;17.85;69.88
40872;BME280;26591;43.264;26.940;2023-06-04T02:52:22;99283.75;;;18.09;70.29
40872;BME280;26591;43.264;26.940;2023-06-04T02:54:48;99286.84;;;18.13;70.10
40872;BME280;26591;43.264;26.940;2023-06-04T02:57:13;99292.63;;;17.90;69.86
40872;BME280;26591;43.264;26.940;2023-06-04T02:59:39;99291.59;;;18.04;69.83
40872;BME280;26591;43.264;26.940;2023-06-04T03:02:05;99293.78;;;18.34;69.51
40872;BME280;26591;43.264;26.940;2023-06-04T03:04:30;99288.03;;;18.24;69.28
40872;BME280;26591;43.264;26.940;2023-06-04T03:07:03;99294.28;;;17.91;68.96
40872;BME280;26591;43.264;26.940;2023-06-04T03:09:32;99294.06;;;17.65;69.75
40872;BME280;26591;43.264;26.940;2023-06-04T03:12:00;99302.50;;;17.89;69.77
40872;BME280;26591;43.264;26.940;2023-06-04T03:14:28;99301.28;;;18.05;69.29
40872;BME280;26591;43.264;26.940;2023-06-04T03:17:03;99295.25;;;18.30;68.82
40872;BME280;26591;43.264;26.940;2023-06-04T03:19:36;99305.56;;;18.26;68.79
40872;BME280;26591;43.264;26.940;2023-06-04T03:22:03;99312.25;;;18.56;68.13
40872;BME280;26591;43.264;26.940;2023-06-04T03:24:35;99302.88;;;18.85;66.90
40872;BME280;26591;43.264;26.940;2023-06-04T03:27:05;99309.16;;;18.59;66.61
40872;BME280;26591;43.264;26.940;2023-06-04T03:29:31;99301.56;;;18.49;67.74
40872;BME280;26591;43.264;26.940;2023-06-04T03:31:57;99308.31;;;18.72;67.54
40872;BME280;26591;43.264;26.940;2023-06-04T03:34:23;99303.88;;;18.98;66.97
40872;BME280;26591;43.264;26.940;2023-06-04T03:36:55;99311.94;;;18.32;66.76
40872;BME280;26591;43.264;26.940;2023-06-04T03:39:21;99300.84;;;17.95;67.98
40872;BME280;26591;43.264;26.940;2023-06-04T03:41:48;99311.56;;;17.81;68.49
40872;BME280;26591;43.264;26.940;2023-06-04T03:44:14;99306.44;;;17.60;68.87
40872;BME280;26591;43.264;26.940;2023-06-04T03:46:41;99304.94;;;17.37;69.67
40872;BME280;26591;43.264;26.940;2023-06-04T03:49:07;99309.72;;;17.62;69.37
40872;BME280;26591;43.264;26.940;2023-06-04T03:51:32;99319.19;;;17.64;69.40
40872;BME280;26591;43.264;26.940;2023-06-04T03:53:58;99320.41;;;17.42;69.75
40872;BME280;26591;43.264;26.940;2023-06-04T03:56:24;99320.34;;;17.08;70.54
40872;BME280;26591;43.264;26.940;2023-06-04T03:58:52;99329.66;;;17.39;70.43
40872;BME280;26591;43.264;26.940;2023-06-04T04:01:18;99337.91;;;17.37;69.83
40872;BME280;26591;43.264;26.940;2023-06-04T04:03:44;99339.75;;;17.50;69.93
40872;BME280;26591;43.264;26.940;2023-06-04T04:06:14;99342.66;;;17.89;69.77
40872;BME280;26591;43.264;26.940;2023-06-04T04:08:40;99331.56;;;17.99;69.12
40872;BME280;26591;43.264;26.940;2023-06-04T04:11:16;99334.22;;;17.65;68.48
40872;BME280;26591;43.264;26.940;2023-06-04T04:13:44;99341.22;;;17.46;69.72
40872;BME280;26591;43.264;26.940;2023-06-04T04:16:10;99334.59;;;17.35;70.51
40872;BME280;26591;43.264;26.940;2023-06-04T04:18:36;99341.63;;;17.50;70.21
40872;BME280;26591;43.264;26.940;2023-06-04T04:21:03;99339.53;;;17.38;70.67
40872;BME280;26591;43.264;26.940;2023-06-04T04:23:29;99343.66;;;17.48;70.20
40872;BME280;26591;43.264;26.940;2023-06-04T04:25:55;99346.09;;;17.36;70.78
40872;BME280;26591;43.264;26.940;2023-06-04T04:28:27;99357.63;;;17.30;71.54
40872;BME280;26591;43.264;26.940;2023-06-04T04:30:57;99355.59;;;17.45;70.91
40872;BME280;26591;43.264;26.940;2023-06-04T04:33:23;99363.41;;;17.47;70.20
40872;BME280;26591;43.264;26.940;2023-06-04T04:35:52;99363.03;;;17.50;70.74
40872;BME280;26591;43.264;26.940;2023-06-04T04:38:21;99363.44;;;17.67;70.75
40872;BME280;26591;43.264;26.940;2023-06-04T04:40:49;99359.34;;;18.05;69.70
40872;BME280;26591;43.264;26.940;2023-06-04T04:43:27;99360.56;;;18.36;69.09
40872;BME280;26591;43.264;26.940;2023-06-04T04:45:53;99363.88;;;18.24;68.83
40872;BME280;26591;43.264;26.940;2023-06-04T04:48:18;99357.25;;;18.34;68.70
40872;BME280;26591;43.264;26.940;2023-06-04T04:50:44;99377.44;;;18.56;68.06
40872;BME280;26591;43.264;26.940;2023-06-04T04:53:09;99372.47;;;18.53;68.30
40872;BME280;26591;43.264;26.940;2023-06-04T04:55:35;99373.16;;;18.35;68.00
40872;BME280;26591;43.264;26.940;2023-06-04T04:58:00;99379.94;;;18.24;67.95
40872;BME280;26591;43.264;26.940;2023-06-04T05:00:26;99388.38;;;18.41;67.84
40872;BME280;26591;43.264;26.940;2023-06-04T05:02:52;99387.78;;;18.06;67.98
40872;BME280;26591;43.264;26.940;2023-06-04T05:05:18;99383.88;;;18.02;68.74
40872;BME280;26591;43.264;26.940;2023-06-04T05:07:43;99383.63;;;18.50;68.08
40872;BME280;26591;43.264;26.940;2023-06-04T05:10:09;99389.94;;;18.69;67.82
40872;BME280;26591;43.264;26.940;2023-06-04T05:12:35;99393.31;;;18.51;66.73
40872;BME280;26591;43.264;26.940;2023-06-04T05:15:00;99397.19;;;18.69;66.90
40872;BME280;26591;43.264;26.940;2023-06-04T05:17:26;99395.06;;;18.91;68.37
40872;BME280;26591;43.264;26.940;2023-06-04T05:19:56;99397.06;;;19.09;66.49
40872;BME280;26591;43.264;26.940;2023-06-04T05:22:37;99398.34;;;19.45;66.15
40872;BME280;26591;43.264;26.940;2023-06-04T05:25:02;99400.97;;;19.52;64.95
40872;BME280;26591;43.264;26.940;2023-06-04T05:27:28;99397.88;;;19.55;65.07
40872;BME280;26591;43.264;26.940;2023-06-04T05:29:56;99401.38;;;19.56;64.15
40872;BME280;26591;43.264;26.940;2023-06-04T05:32:32;99399.78;;;19.02;64.84
40872;BME280;26591;43.264;26.940;2023-06-04T05:34:58;99406.56;;;19.05;65.25
40872;BME280;26591;43.264;26.940;2023-06-04T05:37:25;99409.47;;;19.03;65.66
40872;BME280;26591;43.264;26.940;2023-06-04T05:39:52;99406.06;;;19.28;65.72
40872;BME280;26591;43.264;26.940;2023-06-04T05:42:18;99405.06;;;19.23;65.98
40872;BME280;26591;43.264;26.940;2023-06-04T05:44:44;99410.31;;;18.97;66.13
40872;BME280;26591;43.264;26.940;2023-06-04T05:47:09;99414.09;;;19.28;66.15
40872;BME280;26591;43.264;26.940;2023-06-04T05:49:35;99413.84;;;19.43;66.58
40872;BME280;26591;43.264;26.940;2023-06-04T05:52:00;99410.69;;;19.78;66.14
40872;BME280;26591;43.264;26.940;2023-06-04T05:54:29;99414.53;;;19.96;64.38
40872;BME280;26591;43.264;26.940;2023-06-04T05:56:55;99411.63;;;20.23;63.76
40872;BME280;26591;43.264;26.940;2023-06-04T05:59:21;99413.00;;;20.32;63.58
40872;BME280;26591;43.264;26.940;2023-06-04T06:01:47;99418.81;;;20.92;64.52
40872;BME280;26591;43.264;26.940;2023-06-04T06:04:13;99421.34;;;21.85;61.91
40872;BME280;26591;43.264;26.940;2023-06-04T06:06:39;99419.41;;;22.28;59.16
40872;BME280;26591;43.264;26.940;2023-06-04T06:09:05;99421.81;;;23.00;58.52
40872;BME280;26591;43.264;26.940;2023-06-04T06:11:34;99425.28;;;23.54;55.83
40872;BME280;26591;43.264;26.940;2023-06-04T06:14:00;99422.91;;;23.40;56.83
40872;BME280;26591;43.264;26.940;2023-06-04T06:16:25;99423.69;;;23.70;53.99
40872;BME280;26591;43.264;26.940;2023-06-04T06:18:51;99436.19;;;24.39;55.23
40872;BME280;26591;43.264;26.940;2023-06-04T06:21:17;99430.34;;;24.87;51.62
40872;BME280;26591;43.264;26.940;2023-06-04T06:23:42;99446.91;;;24.51;52.23
40872;BME280;26591;43.264;26.940;2023-06-04T06:26:08;99433.53;;;23.76;53.57
40872;BME280;26591;43.264;26.940;2023-06-04T06:28:34;99434.16;;;23.66;53.50
40872;BME280;26591;43.264;26.940;2023-06-04T06:31:01;99445.88;;;24.18;51.71
40872;BME280;26591;43.264;26.940;2023-06-04T06:33:27;99440.88;;;23.64;52.92
40872;BME280;26591;43.264;26.940;2023-06-04T06:35:53;99436.13;;;23.42;53.44
40872;BME280;26591;43.264;26.940;2023-06-04T06:38:18;99442.41;;;23.59;53.73
40872;BME280;26591;43.264;26.940;2023-06-04T06:40:44;99441.50;;;23.25;54.65
40872;BME280;26591;43.264;26.940;2023-06-04T06:43:10;99433.47;;;22.65;54.73
40872;BME280;26591;43.264;26.940;2023-06-04T06:45:36;99434.84;;;22.08;57.42
40872;BME280;26591;43.264;26.940;2023-06-04T06:48:01;99439.91;;;22.29;57.83
40872;BME280;26591;43.264;26.940;2023-06-04T06:50:27;99442.59;;;22.17;58.46
40872;BME280;26591;43.264;26.940;2023-06-04T06:52:52;99435.31;;;21.32;60.54
40872;BME280;26591;43.264;26.940;2023-06-04T06:55:18;99443.00;;;20.73;61.74
40872;BME280;26591;43.264;26.940;2023-06-04T06:57:44;99439.03;;;20.57;61.85
40872;BME280;26591;43.264;26.940;2023-06-04T07:00:10;99447.38;;;21.42;61.68
40872;BME280;26591;43.264;26.940;2023-06-04T07:02:36;99448.28;;;21.85;59.78
40872;BME280;26591;43.264;26.940;2023-06-04T07:05:03;99455.41;;;21.79;60.21
40872;BME280;26591;43.264;26.940;2023-06-04T07:07:29;99460.44;;;21.75;59.55
40872;BME280;26591;43.264;26.940;2023-06-04T07:09:54;99457.91;;;22.47;59.45
40872;BME280;26591;43.264;26.940;2023-06-04T07:12:20;99455.88;;;22.30;57.84
40872;BME280;26591;43.264;26.940;2023-06-04T07:14:45;99460.94;;;22.62;57.73
40872;BME280;26591;43.264;26.940;2023-06-04T07:17:11;99463.50;;;22.81;56.87
40872;BME280;26591;43.264;26.940;2023-06-04T07:19:36;99457.03;;;22.22;59.21
40872;BME280;26591;43.264;26.940;2023-06-04T07:22:02;99466.78;;;22.95;57.50
40872;BME280;26591;43.264;26.940;2023-06-04T07:24:27;99457.41;;;22.62;56.87
40872;BME280;26591;43.264;26.940;2023-06-04T07:26:53;99463.22;;;23.18;56.28
40872;BME280;26591;43.264;26.940;2023-06-04T07:29:19;99466.00;;;23.35;55.04
40872;BME280;26591;43.264;26.940;2023-06-04T07:31:44;99462.94;;;22.79;54.44
40872;BME280;26591;43.264;26.940;2023-06-04T07:34:10;99464.06;;;22.23;53.83
40872;BME280;26591;43.264;26.940;2023-06-04T07:36:36;99465.69;;;22.13;55.25
40872;BME280;26591;43.264;26.940;2023-06-04T07:39:01;99474.19;;;22.76;55.08
40872;BME280;26591;43.264;26.940;2023-06-04T07:41:30;99471.59;;;24.20;51.59
40872;BME280;26591;43.264;26.940;2023-06-04T07:43:55;99479.91;;;24.87;49.71
40872;BME280;26591;43.264;26.940;2023-06-04T07:46:21;99467.09;;;25.44;50.02
40872;BME280;26591;43.264;26.940;2023-06-04T07:48:46;99466.56;;;25.74;49.28
40872;BME280;26591;43.264;26.940;2023-06-04T07:51:13;99466.00;;;25.01;48.51
40872;BME280;26591;43.264;26.940;2023-06-04T07:53:38;99474.91;;;24.62;50.11
40872;BME280;26591;43.264;26.940;2023-06-04T07:56:04;99477.63;;;24.62;49.32
40872;BME280;26591;43.264;26.940;2023-06-04T07:58:31;99477.31;;;24.07;50.00
40872;BME280;26591;43.264;26.940;2023-06-04T08:00:56;99480.44;;;24.16;50.56
40872;BME280;26591;43.264;26.940;2023-06-04T08:03:22;99479.31;;;24.46;50.40
40872;BME280;26591;43.264;26.940;2023-06-04T08:05:48;99476.16;;;24.71;50.32
40872;BME280;26591;43.264;26.940;2023-06-04T08:08:14;99467.50;;;24.18;49.82
40872;BME280;26591;43.264;26.940;2023-06-04T08:10:40;99476.00;;;24.44;51.08
40872;BME280;26591;43.264;26.940;2023-06-04T08:13:06;99471.28;;;24.90;49.20
40872;BME280;26591;43.264;26.940;2023-06-04T08:15:31;99474.69;;;25.25;49.27
40872;BME280;26591;43.264;26.940;2023-06-04T08:17:57;99475.94;;;24.95;49.43
40872;BME280;26591;43.264;26.940;2023-06-04T08:20:23;99477.13;;;24.65;49.54
40872;BME280;26591;43.264;26.940;2023-06-04T08:22:49;99477.31;;;24.24;51.13
40872;BME280;26591;43.264;26.940;2023-06-04T08:25:15;99479.44;;;24.22;50.05
40872;BME280;26591;43.264;26.940;2023-06-04T08:27:41;99475.38;;;23.73;51.57
40872;BME280;26591;43.264;26.940;2023-06-04T08:30:07;99478.06;;;23.73;51.92
40872;BME280;26591;43.264;26.940;2023-06-04T08:32:33;99475.63;;;24.18;50.48
40872;BME280;26591;43.264;26.940;2023-06-04T08:34:59;99485.69;;;24.22;51.01
40872;BME280;26591;43.264;26.940;2023-06-04T08:37:25;99483.22;;;24.38;50.19
40872;BME280;26591;43.264;26.940;2023-06-04T08:39:51;99486.25;;;24.07;48.45
40872;BME280;26591;43.264;26.940;2023-06-04T08:42:29;99479.13;;;24.01;48.88
40872;BME280;26591;43.264;26.940;2023-06-04T08:44:57;99478.00;;;23.85;48.83
40872;BME280;26591;43.264;26.940;2023-06-04T08:47:24;99481.47;;;23.98;49.35
40872;BME280;26591;43.264;26.940;2023-06-04T08:49:52;99478.56;;;24.33;47.92
40872;BME280;26591;43.264;26.940;2023-06-04T08:52:18;99481.72;;;24.64;47.34
40872;BME280;26591;43.264;26.940;2023-06-04T08:54:48;99480.53;;;24.94;46.59
40872;BME280;26591;43.264;26.940;2023-06-04T08:57:15;99478.88;;;24.54;45.81
40872;BME280;26591;43.264;26.940;2023-06-04T08:59:41;99482.09;;;24.34;46.88
40872;BME280;26591;43.264;26.940;2023-06-04T09:02:07;99486.81;;;24.27;47.15
40872;BME280;26591;43.264;26.940;2023-06-04T09:04:33;99493.47;;;24.19;46.74
40872;BME280;26591;43.264;26.940;2023-06-04T09:07:03;99483.94;;;23.99;47.35
40872;BME280;26591;43.264;26.940;2023-06-04T09:09:30;99486.44;;;24.35;45.42
40872;BME280;26591;43.264;26.940;2023-06-04T09:11:57;99493.38;;;23.97;45.10
40872;BME280;26591;43.264;26.940;2023-06-04T09:14:23;99495.53;;;23.54;47.16
40872;BME280;26591;43.264;26.940;2023-06-04T09:16:51;99489.09;;;23.43;47.67
40872;BME280;26591;43.264;26.940;2023-06-04T09:19:18;99491.75;;;23.55;47.52
40872;BME280;26591;43.264;26.940;2023-06-04T09:24:12;99492.13;;;23.46;48.07
40872;BME280;26591;43.264;26.940;2023-06-04T09:26:37;99490.16;;;23.71;47.13
40872;BME280;26591;43.264;26.940;2023-06-04T09:29:04;99491.31;;;24.21;45.22
40872;BME280;26591;43.264;26.940;2023-06-04T09:31:31;99486.25;;;24.76;45.04
40872;BME280;26591;43.264;26.940;2023-06-04T09:34:03;99500.59;;;24.59;43.85
40872;BME280;26591;43.264;26.940;2023-06-04T09:36:32;99499.81;;;23.38;44.62
40872;BME280;26591;43.264;26.940;2023-06-04T09:38:59;99497.03;;;22.97;46.24
40872;BME280;26591;43.264;26.940;2023-06-04T09:41:25;99488.59;;;22.69;47.22
40872;BME280;26591;43.264;26.940;2023-06-04T09:43:59;99488.78;;;23.27;46.95
40872;BME280;26591;43.264;26.940;2023-06-04T09:46:28;99482.66;;;23.32;46.88
40872;BME280;26591;43.264;26.940;2023-06-04T09:49:03;99487.94;;;23.39;45.33
40872;BME280;26591;43.264;26.940;2023-06-04T09:51:31;99483.78;;;23.60;45.79
40872;BME280;26591;43.264;26.940;2023-06-04T09:54:00;99491.38;;;23.10;45.06
40872;BME280;26591;43.264;26.940;2023-06-04T09:56:27;99483.81;;;22.71;45.10
40872;BME280;26591;43.264;26.940;2023-06-04T09:58:59;99480.59;;;22.98;44.75
40872;BME280;26591;43.264;26.940;2023-06-04T10:01:29;99483.25;;;23.34;46.12
40872;BME280;26591;43.264;26.940;2023-06-04T10:03:57;99489.28;;;24.11;44.44
40872;BME280;26591;43.264;26.940;2023-06-04T10:06:25;99485.81;;;23.99;42.77
40872;BME280;26591;43.264;26.940;2023-06-04T10:08:51;99491.31;;;24.21;42.67
40872;BME280;26591;43.264;26.940;2023-06-04T10:11:26;99495.34;;;24.01;44.01
40872;BME280;26591;43.264;26.940;2023-06-04T10:14:20;99482.03;;;23.54;44.15
40872;BME280;26591;43.264;26.940;2023-06-04T10:16:47;99481.72;;;23.67;45.20
40872;BME280;26591;43.264;26.940;2023-06-04T10:19:14;99490.91;;;24.12;44.13
40872;BME280;26591;43.264;26.940;2023-06-04T10:21:40;99480.28;;;24.40;44.11
40872;BME280;26591;43.264;26.940;2023-06-04T10:24:07;99479.06;;;24.87;43.62
40872;BME280;26591;43.264;26.940;2023-06-04T10:26:33;99482.91;;;24.17;44.07
40872;BME280;26591;43.264;26.940;2023-06-04T10:29:01;99480.47;;;23.58;45.65
40872;BME280;26591;43.264;26.940;2023-06-04T10:31:28;99477.06;;;23.62;45.95
40872;BME280;26591;43.264;26.940;2023-06-04T10:33:55;99472.59;;;24.31;45.26
40872;BME280;26591;43.264;26.940;2023-06-04T10:36:22;99473.88;;;24.29;44.32
40872;BME280;26591;43.264;26.940;2023-06-04T10:38:51;99477.59;;;24.22;45.83
40872;BME280;26591;43.264;26.940;2023-06-04T10:41:17;99483.38;;;24.14;45.81
40872;BME280;26591;43.264;26.940;2023-06-04T10:43:45;99473.97;;;24.17;43.39
40872;BME280;26591;43.264;26.940;2023-06-04T10:46:14;99481.75;;;23.84;42.60
40872;BME280;26591;43.264;26.940;2023-06-04T10:48:53;99477.50;;;23.42;42.42
40872;BME280;26591;43.264;26.940;2023-06-04T10:51:34;99486.53;;;23.36;46.09
40872;BME280;26591;43.264;26.940;2023-06-04T10:54:03;99479.06;;;23.84;45.75
40872;BME280;26591;43.264;26.940;2023-06-04T10:56:30;99472.56;;;24.14;45.98
40872;BME280;26591;43.264;26.940;2023-06-04T10:59:17;99473.88;;;24.29;45.93
40872;BME280;26591;43.264;26.940;2023-06-04T11:01:42;99469.78;;;24.26;46.79
40872;BME280;26591;43.264;26.940;2023-06-04T11:04:27;99474.19;;;24.49;45.19
40872;BME280;26591;43.264;26.940;2023-06-04T11:07:06;99478.81;;;24.32;45.35
40872;BME280;26591;43.264;26.940;2023-06-04T11:09:47;99480.25;;;24.05;45.41
40872;BME280;26591;43.264;26.940;2023-06-04T11:12:12;99471.91;;;24.58;46.47
40872;BME280;26591;43.264;26.940;2023-06-04T11:14:38;99490.25;;;24.73;45.26
40872;BME280;26591;43.264;26.940;2023-06-04T11:17:13;99490.84;;;24.07;45.78
40872;BME280;26591;43.264;26.940;2023-06-04T11:19:39;99486.53;;;24.40;45.47
40872;BME280;26591;43.264;26.940;2023-06-04T11:22:05;99483.38;;;24.14;45.94
40872;BME280;26591;43.264;26.940;2023-06-04T11:24:32;99488.13;;;24.24;46.63
40872;BME280;26591;43.264;26.940;2023-06-04T11:26:58;99486.25;;;24.42;45.64
40872;BME280;26591;43.264;26.940;2023-06-04T11:29:27;99486.00;;;24.43;44.89
40872;BME280;26591;43.264;26.940;2023-06-04T11:31:53;99486.41;;;24.01;44.93
40872;BME280;26591;43.264;26.940;2023-06-04T11:34:29;99495.19;;;24.25;44.76
40872;BME280;26591;43.264;26.940;2023-06-04T11:36:55;99496.81;;;24.09;45.69
40872;BME280;26591;43.264;26.940;2023-06-04T11:39:21;99492.31;;;24.49;43.87
40872;BME280;26591;43.264;26.940;2023-06-04T11:41:48;99493.13;;;24.49;43.79
40872;BME280;26591;43.264;26.940;2023-06-04T11:44:18;99481.28;;;24.33;44.58
40872;BME280;26591;43.264;26.940;2023-06-04T11:46:44;99483.28;;;24.60;44.56
40872;BME280;26591;43.264;26.940;2023-06-04T11:49:17;99480.53;;;24.94;43.95
40872;BME280;26591;43.264;26.940;2023-06-04T11:51:49;99490.41;;;24.66;44.67
40872;BME280;26591;43.264;26.940;2023-06-04T11:54:17;99486.09;;;24.31;44.53
40872;BME280;26591;43.264;26.940;2023-06-04T11:56:43;99484.38;;;24.25;45.35
40872;BME280;26591;43.264;26.940;2023-06-04T11:59:14;99481.75;;;24.13;44.09
40872;BME280;26591;43.264;26.940;2023-06-04T12:01:42;99481.28;;;23.87;44.78
40872;BME280;26591;43.264;26.940;2023-06-04T12:04:14;99488.31;;;24.17;43.17
40872;BME280;26591;43.264;26.940;2023-06-04T12:09:27;99481.00;;;23.43;46.16
40872;BME280;26591;43.264;26.940;2023-06-04T12:12:03;99473.09;;;23.12;46.86
40872;BME280;26591;43.264;26.940;2023-06-04T12:14:29;99476.72;;;22.94;47.36
40872;BME280;26591;43.264;26.940;2023-06-04T12:16:58;99474.78;;;23.42;46.51
40872;BME280;26591;43.264;26.940;2023-06-04T12:19:25;99473.66;;;23.26;47.13
40872;BME280;26591;43.264;26.940;2023-06-04T12:22:07;99476.50;;;23.08;48.08
40872;BME280;26591;43.264;26.940;2023-06-04T12:24:34;99480.06;;;23.37;45.57
40872;BME280;26591;43.264;26.940;2023-06-04T12:27:11;99471.78;;;23.27;46.72
40872;BME280;26591;43.264;26.940;2023-06-04T12:29:36;99482.81;;;23.25;45.09
40872;BME280;26591;43.264;26.940;2023-06-04T12:32:07;99469.88;;;23.27;45.39
40872;BME280;26591;43.264;26.940;2023-06-04T12:34:40;99471.03;;;22.79;46.39
40872;BME280;26591;43.264;26.940;2023-06-04T12:37:06;99472.44;;;22.81;46.53
40872;BME280;26591;43.264;26.940;2023-06-04T12:39:36;99466.13;;;23.16;45.19
40872;BME280;26591;43.264;26.940;2023-06-04T12:42:08;99459.97;;;22.92;46.82
40872;BME280;26591;43.264;26.940;2023-06-04T12:44:38;99480.59;;;23.22;46.96
40872;BME280;26591;43.264;26.940;2023-06-04T12:47:04;99469.72;;;22.93;46.24
40872;BME280;26591;43.264;26.940;2023-06-04T12:49:30;99461.50;;;22.88;46.97
40872;BME280;26591;43.264;26.940;2023-06-04T12:51:56;99473.75;;;23.31;47.01
40872;BME280;26591;43.264;26.940;2023-06-04T12:54:21;99470.88;;;23.50;45.10
40872;BME280;26591;43.264;26.940;2023-06-04T12:56:48;99465.38;;;22.68;45.96
40872;BME280;26591;43.264;26.940;2023-06-04T12:59:13;99465.72;;;22.96;47.90
40872;BME280;26591;43.264;26.940;2023-06-04T13:01:39;99468.34;;;23.20;46.63
40872;BME280;26591;43.264;26.940;2023-06-04T13:04:05;99467.63;;;22.83;47.01